Terminal Aerodrome Forecast
Issued by NWS Greer, SC

Home | Current Version | Previous Version | Text Only | Print | Product List | Glossary On
Versions: 1 2 3 4 5 6 7 8 9 10 11 12 13 14 15 16 17 18 19 20 21 22 23 24 25 26 27 28 29 30 31 32 33
000
FTUS42 KGSP 302300
TAFAVL
TAF
KAVL 302338Z 3100/3124 17004KT P6SM BKN100
     FM310700 00000KT 3SM BR VCTS BKN060CB
     FM311400 00000KT 5SM BR BKN080
     FM311700 17004KT P6SM SCT250 PROB30 3118/3124 4SM TSRA
      BKN040CB=

USA.gov is the U.S. government's official web portal to all federal, state and local government web resources and services.